18:50
Airports
History
Links
Donate
Help keep this website running!
PayPal
Bitcoin
This page is community maintained. The information is intended for PC simulator navigation or reference.
Always use approved charts for navigation.
LEMU
Muchamiel Alicante
Muchamiel Alicante (LEMU)
Mutxamel, Valencia, Spain (3110)
4
Lat/Lng:38° 26' 21.59" N / 0° 28' 25.91" W
38.439331 / -0.473864
Elevation:365'ft / 111mMSL
ID / ICAO:LEMU
Runways:1
Longest:16-34
Asphalt 901m / 2,957ft
Nearby Weather18:30 GMT 2017-09-19
Nearby weather at LEAL, Alicante located 11.8 nautical miles from LEMU
Altimeter: 30.12
Visibility: 6.2 statute miles
Wind: 2 knots (from VRB°)
Temp: 23°c / 73°f
Humidity: 73.5%

METAR: LEAL 191830Z VRB02KT 9999 FEW040 23/18 Q1020 NOSIG

(Powered by phpweather)
Nearby VORs <50NM
Nearby NDBs
Runway 16 / 34
Dimensions:901.2 x 39m 2957' x 128'ft
Surface:Asphalt
Runway 16 [A]Runway 34 [B]
Heading:116°TH 296°TH
Lat:
Lng:
38° 26' 32.58"N
0° 28' 47.2"W
38° 26' 19.54"N
0° 28' 14.05"W
(Edited 2015-12-29) [ Sign in to Edit ]
User Notes and Comments
38° 26' 21.59" N / 0° 28' 25.91" W
Distance To
Airport ID:
Nearby Airports
(C) Alicante 11.8 NM
LEAL ( WX ) SSW 202°
(U) Castell de Castell Helo 18.4 NM
LECX NNE 17°
4 ULM_Alcocer 24.6 NM
LE98 N
4 Ciudad Quesada Alic. 27.7 NM
LECQ SSW 207°
4 ULM_Castello_de_Rugat 31.3 NM
LE97 N 10°
(U) Hosp. Marina Alta 33.2 NM
LEHO NE 35°
(C) ULM_Balica 33.7 NM
LE99 N 10°
VFR Chart
Flight Planning at SkyVector.com